createdAt,value
2018-11-13T00:01:10.424Z,15.80
2018-11-13T00:03:43.144Z,15.85
2018-11-13T00:06:15.623Z,15.93
2018-11-13T00:08:48.459Z,15.69
2018-11-13T00:14:08.480Z,15.63
2018-11-13T00:16:39.893Z,15.47
2018-11-13T00:19:12.651Z,15.43
2018-11-13T00:21:45.488Z,15.36
2018-11-13T00:24:18.392Z,15.36
2018-11-13T00:26:51.120Z,15.41
2018-11-13T00:29:24.292Z,15.47
2018-11-13T00:31:57.091Z,15.45
2018-11-13T00:34:30.252Z,15.44
2018-11-13T00:37:03.133Z,15.43
2018-11-13T00:39:36.123Z,15.46
2018-11-13T00:42:09.250Z,15.54
2018-11-13T00:44:42.152Z,15.60
2018-11-13T00:47:15.114Z,15.67
2018-11-13T00:49:48.221Z,15.70
2018-11-13T00:52:21.104Z,15.73
2018-11-13T00:54:54.181Z,15.71
2018-11-13T00:57:26.632Z,15.68
2018-11-13T00:59:59.480Z,15.72
2018-11-13T01:02:30.893Z,15.72
2018-11-13T01:05:03.654Z,15.75
2018-11-13T01:07:34.953Z,15.77
2018-11-13T01:10:08.413Z,15.82
2018-11-13T01:12:39.664Z,15.83
2018-11-13T01:15:14.458Z,15.95
2018-11-13T01:17:46.510Z,15.95
2018-11-13T01:20:19.972Z,15.97
2018-11-13T01:22:52.761Z,15.96
2018-11-13T01:25:25.648Z,15.87
2018-11-13T01:27:58.479Z,15.95
2018-11-13T01:30:29.998Z,15.95
2018-11-13T01:33:02.816Z,16.01
2018-11-13T01:35:39.506Z,15.90
2018-11-13T01:38:12.392Z,15.83
2018-11-13T01:40:43.444Z,15.59
2018-11-13T01:43:14.721Z,15.58
2018-11-13T01:45:47.513Z,15.47
2018-11-13T01:48:20.380Z,15.50
2018-11-13T01:50:51.465Z,15.49
2018-11-13T01:53:22.897Z,15.43
2018-11-13T01:55:55.646Z,15.41
2018-11-13T01:58:28.609Z,15.48
2018-11-13T02:01:01.604Z,15.48
2018-11-13T02:03:34.471Z,15.55
2018-11-13T02:06:08.241Z,15.49
2018-11-13T02:08:42.414Z,15.49
2018-11-13T02:11:14.332Z,15.60
2018-11-13T02:13:47.421Z,15.64
2018-11-13T02:17:15.629Z,15.67
2018-11-13T02:19:48.436Z,15.69
2018-11-13T02:22:21.392Z,15.65
2018-11-13T02:24:54.148Z,15.65
2018-11-13T02:27:27.079Z,15.70
2018-11-13T02:30:00.144Z,15.72
2018-11-13T02:32:33.097Z,15.77
2018-11-13T02:35:06.390Z,15.77
2018-11-13T02:37:39.017Z,15.74
2018-11-13T02:40:12.250Z,15.66
2018-11-13T02:42:45.402Z,15.68
2018-11-13T02:45:18.376Z,15.66
2018-11-13T02:47:49.889Z,15.70
2018-11-13T02:50:23.404Z,15.66
2018-11-13T02:52:54.888Z,15.65
2018-11-13T02:55:27.812Z,15.65
2018-11-13T02:58:00.645Z,15.69
2018-11-13T03:00:33.614Z,15.54
2018-11-13T03:03:06.618Z,15.57
2018-11-13T03:05:39.614Z,15.54
2018-11-13T03:08:12.618Z,15.54
2018-11-13T03:10:45.649Z,15.55
2018-11-13T03:13:18.603Z,15.46
2018-11-13T03:15:51.620Z,15.44
2018-11-13T03:18:24.427Z,15.44
2018-11-13T03:20:55.889Z,15.45
2018-11-13T03:23:29.089Z,15.47
2018-11-13T03:26:02.140Z,15.47
2018-11-13T03:28:35.399Z,15.45
2018-11-13T03:31:07.046Z,15.44
2018-11-13T03:33:40.086Z,15.44
2018-11-13T03:36:13.125Z,15.45
2018-11-13T03:38:46.256Z,15.43
2018-11-13T03:41:19.348Z,15.43
2018-11-13T03:43:50.883Z,15.43
2018-11-13T03:46:24.146Z,15.45
2018-11-13T03:48:57.138Z,15.50
2018-11-13T03:51:30.154Z,15.45
2018-11-13T03:54:03.095Z,15.45
2018-11-13T03:56:36.115Z,15.46
2018-11-13T03:59:09.136Z,15.45
2018-11-13T04:01:42.126Z,15.52
2018-11-13T04:04:16.111Z,15.44
2018-11-13T04:06:49.161Z,15.38
2018-11-13T04:09:22.089Z,15.33
2018-11-13T04:11:55.148Z,15.35
2018-11-13T04:14:28.081Z,15.38
2018-11-13T04:17:01.160Z,15.32
2018-11-13T04:19:34.150Z,15.33
2018-11-13T04:22:07.354Z,15.31
2018-11-13T04:24:40.261Z,15.35
2018-11-13T04:27:13.411Z,15.32
2018-11-13T04:29:44.652Z,15.32
2018-11-13T04:32:17.625Z,15.34
2018-11-13T04:34:50.653Z,15.36
2018-11-13T04:37:23.635Z,14.98
2018-11-13T04:39:56.611Z,14.80
2018-11-13T04:42:29.451Z,14.80
2018-11-13T04:45:00.906Z,14.74
2018-11-13T04:47:34.123Z,14.69
2018-11-13T04:50:07.632Z,14.70
2018-11-13T04:52:40.618Z,14.59
2018-11-13T04:55:13.645Z,14.56
2018-11-13T04:57:47.444Z,14.39
2018-11-13T05:00:20.505Z,14.39
2018-11-13T05:02:53.491Z,14.37
2018-11-13T05:05:26.253Z,14.39
2018-11-13T05:07:59.120Z,14.37
2018-11-13T05:10:32.058Z,14.33
2018-11-13T05:13:05.258Z,14.32
2018-11-13T05:15:38.409Z,14.27
2018-11-13T05:18:09.898Z,14.32
2018-11-13T05:20:43.138Z,14.32
2018-11-13T05:23:16.233Z,14.33
2018-11-13T05:25:49.260Z,14.28
2018-11-13T05:28:22.411Z,14.24
2018-11-13T05:30:53.900Z,14.22
2018-11-13T05:33:26.808Z,14.20
2018-11-13T05:35:59.664Z,14.16
2018-11-13T05:38:32.805Z,14.09
2018-11-13T05:43:49.175Z,14.14
2018-11-13T05:46:22.260Z,14.09
2018-11-13T05:48:55.438Z,14.17
2018-11-13T05:51:27.071Z,14.27
2018-11-13T05:54:00.165Z,14.32
2018-11-13T05:56:33.149Z,14.35
2018-11-13T05:59:06.255Z,14.40
2018-11-13T06:01:39.149Z,14.33
2018-11-13T06:04:12.488Z,14.35
2018-11-13T06:06:43.896Z,14.40
2018-11-13T06:09:17.245Z,14.42
2018-11-13T06:11:50.272Z,14.41
2018-11-13T06:14:23.373Z,14.47
2018-11-13T06:16:54.699Z,14.55
2018-11-13T06:19:27.976Z,14.56
2018-11-13T06:22:00.985Z,14.56
2018-11-13T06:24:34.139Z,14.57
2018-11-13T06:27:07.378Z,14.64
2018-11-13T06:29:40.503Z,14.62
2018-11-13T06:32:13.124Z,14.63
2018-11-13T06:34:45.638Z,14.63
2018-11-13T06:37:17.397Z,14.61
2018-11-13T06:39:50.417Z,14.54
2018-11-13T06:42:23.457Z,14.43
2018-11-13T06:44:54.901Z,14.43
2018-11-13T06:47:28.126Z,14.46
2018-11-13T06:50:01.152Z,14.43
2018-11-13T06:52:34.082Z,14.38
2018-11-13T06:55:12.697Z,14.41
2018-11-13T06:57:45.625Z,14.43
2018-11-13T07:00:18.644Z,14.41
2018-11-13T07:02:51.614Z,14.54
2018-11-13T07:05:24.660Z,14.54
2018-11-13T07:07:57.627Z,14.39
2018-11-13T07:10:31.258Z,14.46
2018-11-13T07:13:04.093Z,14.46
2018-11-13T07:15:37.426Z,14.33
2018-11-13T07:18:08.900Z,14.20
2018-11-13T07:20:41.668Z,14.01
2018-11-13T07:23:14.615Z,13.90
2018-11-13T07:25:47.619Z,13.94
2018-11-13T07:28:20.573Z,13.94
2018-11-13T07:30:53.429Z,13.96
2018-11-13T07:33:26.136Z,13.91
2018-11-13T07:35:59.113Z,14.07
2018-11-13T07:38:32.373Z,14.06
2018-11-13T07:41:03.677Z,14.16
2018-11-13T07:43:36.659Z,14.14
2018-11-13T07:46:10.254Z,14.25
2018-11-13T07:48:43.432Z,14.25
2018-11-13T07:51:14.961Z,14.24
2018-11-13T07:53:48.188Z,14.22
2018-11-13T07:56:21.125Z,14.40
2018-11-13T07:58:54.122Z,14.48
2018-11-13T08:01:27.117Z,14.61
2018-11-13T08:04:00.144Z,14.72
2018-11-13T08:06:33.287Z,14.80
2018-11-13T08:09:08.157Z,14.64
2018-11-13T08:11:41.452Z,14.61
2018-11-13T08:14:14.400Z,14.60
2018-11-13T08:16:45.870Z,14.60
2018-11-13T08:19:18.664Z,14.46
2018-11-13T08:21:51.714Z,14.32
2018-11-13T08:24:24.532Z,14.30
2018-11-13T08:26:57.469Z,14.30
2018-11-13T08:29:29.018Z,14.30
2018-11-13T08:32:01.949Z,14.42
2018-11-13T08:34:34.658Z,14.46
2018-11-13T08:37:07.638Z,14.09
2018-11-13T08:39:40.479Z,14.14
2018-11-13T08:42:12.082Z,14.14
2018-11-13T08:44:45.136Z,14.16
2018-11-13T08:47:18.077Z,14.09
2018-11-13T08:49:51.136Z,14.13
2018-11-13T08:52:24.257Z,14.14
2018-11-13T08:54:57.367Z,14.30
2018-11-13T08:57:30.450Z,14.35
2018-11-13T09:00:01.894Z,14.24
2018-11-13T09:02:34.934Z,14.24
2018-11-13T09:05:08.555Z,14.14
2018-11-13T09:07:41.820Z,14.12
2018-11-13T09:10:16.813Z,14.05
2018-11-13T09:12:49.674Z,13.92
2018-11-13T09:15:23.425Z,13.84
2018-11-13T09:17:55.075Z,13.84
2018-11-13T09:20:28.136Z,13.90
2018-11-13T09:23:01.159Z,13.82
2018-11-13T09:25:34.124Z,13.86
2018-11-13T09:28:06.647Z,13.86
2018-11-13T09:30:38.247Z,13.78
2018-11-13T09:33:10.653Z,13.88
2018-11-13T09:35:43.416Z,13.78
2018-11-13T09:38:14.906Z,13.75
2018-11-13T09:40:47.994Z,13.69
2018-11-13T09:43:21.160Z,13.61
2018-11-13T09:45:54.329Z,13.48
2018-11-13T09:48:27.435Z,13.60
2018-11-13T09:50:59.019Z,13.69
2018-11-13T09:53:32.511Z,13.74
2018-11-13T09:56:03.883Z,13.85
2018-11-13T09:58:37.140Z,13.71
2018-11-13T10:01:10.636Z,13.71
2018-11-13T10:03:44.089Z,13.69
2018-11-13T10:06:14.980Z,13.69
2018-11-13T10:08:48.024Z,13.61
2018-11-13T10:11:20.976Z,13.55
2018-11-13T10:13:54.157Z,13.61
2018-11-13T10:16:27.081Z,13.50
2018-11-13T10:19:00.365Z,13.49
2018-11-13T10:21:33.259Z,13.48
2018-11-13T10:24:06.407Z,13.56
2018-11-13T10:26:37.903Z,13.53
2018-11-13T10:29:10.650Z,13.63
2018-11-13T10:31:43.662Z,13.50
2018-11-13T10:34:16.614Z,13.63
2018-11-13T10:36:49.696Z,13.52
2018-11-13T10:39:22.626Z,13.63
2018-11-13T10:41:55.743Z,13.63
2018-11-13T10:44:28.653Z,13.63
2018-11-13T10:47:01.435Z,13.78
2018-11-13T10:49:32.900Z,13.85
2018-11-13T10:52:06.137Z,13.76
2018-11-13T10:54:39.159Z,13.91
2018-11-13T10:57:12.104Z,14.03
2018-11-13T10:59:45.105Z,14.02
2018-11-13T11:02:35.738Z,14.07
2018-11-13T11:05:11.988Z,13.94
2018-11-13T11:07:45.123Z,13.94
2018-11-13T11:10:18.164Z,13.92
2018-11-13T11:12:51.291Z,13.93
2018-11-13T11:15:24.160Z,14.05
2018-11-13T11:17:57.017Z,14.04
2018-11-13T11:20:30.117Z,14.18
2018-11-13T11:23:03.179Z,14.11
2018-11-13T11:25:36.158Z,14.10
2018-11-13T11:28:09.094Z,14.15
2018-11-13T11:30:42.143Z,14.15
2018-11-13T11:33:15.085Z,14.17
2018-11-13T11:35:47.979Z,14.07
2018-11-13T11:38:21.258Z,14.10
2018-11-13T11:40:54.251Z,13.98
2018-11-13T11:43:27.403Z,13.91
2018-11-13T11:45:58.894Z,13.79
2018-11-13T11:48:31.982Z,13.78
2018-11-13T11:51:05.094Z,13.82
2018-11-13T11:53:38.137Z,13.81
2018-11-13T11:56:11.141Z,13.84
2018-11-13T11:58:44.133Z,13.66
2018-11-13T12:01:17.046Z,13.55
2018-11-13T12:03:50.124Z,13.55
2018-11-13T12:06:23.099Z,13.42
2018-11-13T12:08:56.790Z,13.37
2018-11-13T12:11:29.633Z,13.61
2018-11-13T12:14:02.425Z,13.61
2018-11-13T12:16:35.360Z,13.63
2018-11-13T12:19:09.355Z,13.60
2018-11-13T12:21:42.263Z,13.53
2018-11-13T12:24:15.435Z,13.64
2018-11-13T12:26:46.902Z,13.71
2018-11-13T12:29:19.806Z,13.79
2018-11-13T12:31:52.815Z,13.84
2018-11-13T12:34:25.712Z,13.74
2018-11-13T12:36:58.483Z,13.59
2018-11-13T12:39:31.403Z,13.60
2018-11-13T12:42:02.671Z,13.51
2018-11-13T12:44:35.623Z,13.53
2018-11-13T12:47:08.485Z,13.53
2018-11-13T12:49:41.388Z,13.59
2018-11-13T12:52:19.488Z,13.48
2018-11-13T12:54:52.465Z,13.41
2018-11-13T12:57:23.886Z,13.39
2018-11-13T12:59:56.971Z,13.30
2018-11-13T13:02:30.148Z,13.42
2018-11-13T13:05:03.461Z,13.44
2018-11-13T13:07:34.947Z,13.41
2018-11-13T13:10:09.616Z,13.41
2018-11-13T13:12:42.654Z,13.40
2018-11-13T13:15:17.581Z,13.38
2018-11-13T13:17:50.477Z,13.31
2018-11-13T13:20:25.073Z,13.28
2018-11-13T13:22:58.106Z,13.33
2018-11-13T13:25:31.144Z,13.16
2018-11-13T13:28:04.245Z,13.23
2018-11-13T13:30:37.449Z,13.29
2018-11-13T13:33:08.886Z,13.39
2018-11-13T13:35:52.600Z,13.47
2018-11-13T13:38:23.892Z,13.58
2018-11-13T13:40:57.577Z,13.45
2018-11-13T13:43:29.736Z,13.61
2018-11-13T13:46:02.730Z,13.44
2018-11-13T13:48:35.634Z,13.44
2018-11-13T13:51:08.777Z,13.59
2018-11-13T13:53:41.712Z,13.59
2018-11-13T13:56:14.445Z,13.61
2018-11-13T13:58:45.888Z,13.53
2018-11-13T14:01:19.165Z,13.53
2018-11-13T14:03:52.250Z,13.53
2018-11-13T14:06:25.354Z,13.53
2018-11-13T14:08:56.702Z,13.69
2018-11-13T14:11:29.608Z,13.61
2018-11-13T14:14:02.618Z,13.61
2018-11-13T14:16:35.491Z,13.83
2018-11-13T14:19:08.610Z,13.83
2018-11-13T14:21:41.594Z,13.92
2018-11-13T14:24:14.424Z,13.92
2018-11-13T14:26:45.657Z,13.77
2018-11-13T14:29:18.637Z,13.90
2018-11-13T14:31:51.508Z,13.92
2018-11-13T14:34:23.032Z,13.92
2018-11-13T14:36:56.145Z,14.06
2018-11-13T14:39:29.249Z,14.11
2018-11-13T14:42:02.247Z,13.99
2018-11-13T14:44:35.396Z,14.06
2018-11-13T14:47:07.244Z,14.00
2018-11-13T14:49:40.485Z,13.80
2018-11-13T14:52:13.404Z,13.73
2018-11-13T14:54:44.891Z,13.80
2018-11-13T14:57:17.602Z,13.78
2018-11-13T14:59:50.466Z,13.74
2018-11-13T15:02:23.426Z,13.62
2018-11-13T15:04:56.469Z,13.54
2018-11-13T15:07:29.340Z,13.42
2018-11-13T15:10:02.425Z,13.28
2018-11-13T15:12:35.089Z,13.13
2018-11-13T15:15:08.181Z,13.17
2018-11-13T15:17:41.969Z,13.06
2018-11-13T15:20:17.098Z,13.00
2018-11-13T15:22:50.132Z,12.94
2018-11-13T15:25:23.107Z,12.82
2018-11-13T15:27:56.362Z,12.83
2018-11-13T15:30:29.477Z,12.83
2018-11-13T15:33:11.317Z,12.71
2018-11-13T15:35:44.400Z,12.71
2018-11-13T15:38:15.689Z,12.67
2018-11-13T15:40:48.601Z,12.57
2018-11-13T15:43:21.534Z,12.47
2018-11-13T15:45:56.476Z,12.47
2018-11-13T15:48:27.888Z,12.59
2018-11-13T15:51:00.886Z,12.56
2018-11-13T15:53:34.095Z,12.58
2018-11-13T15:56:07.119Z,12.63
2018-11-13T15:58:40.314Z,12.62
2018-11-13T16:01:13.380Z,12.67
2018-11-13T16:03:44.885Z,12.67
2018-11-13T16:06:18.015Z,12.66
2018-11-13T16:08:50.793Z,12.67
2018-11-13T16:11:23.915Z,12.71
2018-11-13T16:13:57.162Z,12.79
2018-11-13T16:16:30.152Z,12.81
2018-11-13T16:19:03.111Z,12.82
2018-11-13T16:21:36.164Z,12.68
2018-11-13T16:24:09.405Z,12.58
2018-11-13T16:26:42.424Z,12.44
2018-11-13T16:29:15.424Z,12.36
2018-11-13T16:31:48.127Z,12.25
2018-11-13T16:34:21.174Z,12.25
2018-11-13T16:36:53.806Z,12.28
2018-11-13T16:39:26.644Z,12.05
2018-11-13T16:41:59.726Z,11.95
2018-11-13T16:46:35.757Z,12.05
2018-11-13T16:49:09.111Z,12.05
2018-11-13T16:51:42.063Z,12.06
2018-11-13T16:54:15.170Z,12.01
2018-11-13T16:56:56.632Z,12.04
2018-11-13T16:59:29.658Z,11.92
2018-11-13T17:02:02.620Z,11.94
2018-11-13T17:04:35.610Z,11.76
2018-11-13T17:07:08.982Z,11.76
2018-11-13T17:09:42.243Z,11.82
2018-11-13T17:12:15.197Z,11.84
2018-11-13T17:14:48.061Z,11.82
2018-11-13T17:17:21.100Z,11.73
2018-11-13T17:19:54.158Z,11.69
2018-11-13T17:22:27.101Z,11.80
2018-11-13T17:25:00.057Z,11.72
2018-11-13T17:27:33.307Z,11.73
2018-11-13T17:30:06.792Z,11.66
2018-11-13T17:32:39.628Z,11.62
2018-11-13T17:35:14.157Z,11.57
2018-11-13T17:37:47.579Z,11.49
2018-11-13T17:40:21.968Z,11.55
2018-11-13T17:42:56.458Z,11.49
2018-11-13T17:45:29.358Z,11.55
2018-11-13T17:48:00.609Z,11.55
2018-11-13T17:50:34.642Z,11.59
2018-11-13T17:53:08.424Z,11.47
2018-11-13T17:55:40.061Z,11.47
2018-11-13T17:58:15.411Z,11.54
2018-11-13T18:00:49.011Z,11.54
2018-11-13T18:03:21.621Z,11.47
2018-11-13T18:05:52.889Z,11.54
2018-11-13T18:08:25.807Z,11.52
2018-11-13T18:10:58.620Z,11.48
2018-11-13T18:13:31.499Z,11.53
2018-11-13T18:16:02.918Z,11.53
2018-11-13T18:18:36.104Z,11.52
2018-11-13T18:21:09.343Z,11.61
2018-11-13T18:23:42.522Z,11.58
2018-11-13T18:26:13.671Z,11.60
2018-11-13T18:28:46.716Z,11.60
2018-11-13T18:31:19.474Z,11.66
2018-11-13T18:33:50.890Z,11.66
2018-11-13T18:36:23.813Z,11.60
2018-11-13T18:38:56.749Z,11.66
2018-11-13T18:41:29.593Z,11.70
2018-11-13T18:44:02.613Z,11.72
2018-11-13T18:46:35.471Z,11.67
2018-11-13T18:49:07.065Z,11.67
2018-11-13T18:51:40.124Z,11.68
2018-11-13T18:54:13.253Z,11.73
2018-11-13T18:56:46.433Z,11.74
2018-11-13T18:59:17.962Z,11.81
2018-11-13T19:01:51.162Z,11.79
2018-11-13T19:04:24.257Z,11.76
2018-11-13T19:06:57.465Z,11.66
2018-11-13T19:09:28.895Z,11.67
2018-11-13T19:12:02.089Z,11.64
2018-11-13T19:14:34.623Z,11.68
2018-11-13T19:17:07.628Z,11.59
2018-11-13T19:19:38.990Z,11.62
2018-11-13T19:22:10.283Z,11.69
2018-11-13T19:24:43.255Z,11.65
2018-11-13T19:27:15.988Z,11.65
2018-11-13T19:29:49.094Z,11.73
2018-11-13T19:32:22.434Z,11.63
2018-11-13T19:34:53.895Z,11.60
2018-11-13T19:37:26.803Z,11.65
2018-11-13T19:39:59.866Z,11.66
2018-11-13T19:42:32.482Z,11.75
2018-11-13T19:45:03.974Z,11.74
2018-11-13T19:47:36.642Z,11.80
2018-11-13T19:50:12.108Z,11.68
2018-11-13T19:52:45.086Z,11.68
2018-11-13T19:55:18.602Z,11.70
2018-11-13T19:57:51.655Z,11.52
2018-11-13T20:00:26.415Z,11.56
2018-11-13T20:02:59.250Z,11.56
2018-11-13T20:05:32.575Z,11.56
2018-11-13T20:08:05.634Z,11.58
2018-11-13T20:10:39.554Z,11.64
2018-11-13T20:13:12.605Z,11.64
2018-11-13T20:15:45.606Z,11.52
2018-11-13T20:18:18.499Z,11.52
2018-11-13T20:20:50.016Z,11.57
2018-11-13T20:23:23.156Z,11.54
2018-11-13T20:25:56.147Z,11.55
2018-11-13T20:28:29.156Z,11.44
2018-11-13T20:31:02.267Z,11.44
2018-11-13T20:33:35.111Z,11.50
2018-11-13T20:36:08.257Z,11.30
2018-11-13T20:38:41.392Z,11.30
2018-11-13T20:41:12.908Z,11.36
2018-11-13T20:43:45.797Z,11.36
2018-11-13T20:46:18.412Z,11.39
2018-11-13T20:48:51.433Z,11.31
2018-11-13T20:51:24.201Z,11.29
2018-11-13T20:53:57.110Z,11.34
2018-11-13T20:56:30.147Z,11.33
2018-11-13T20:59:03.258Z,11.43
2018-11-13T21:01:36.102Z,11.32
2018-11-13T21:04:09.422Z,11.32
2018-11-13T21:06:42.492Z,11.25
2018-11-13T21:09:15.410Z,11.22
2018-11-13T21:11:46.894Z,11.22
2018-11-13T21:14:19.977Z,11.22
2018-11-13T21:16:53.102Z,11.20
2018-11-13T21:19:26.134Z,11.15
2018-11-13T21:21:59.132Z,11.18
2018-11-13T21:24:32.067Z,11.19
2018-11-13T21:27:05.288Z,11.19
2018-11-13T21:29:38.349Z,11.22
2018-11-13T21:32:09.892Z,11.22
2018-11-13T21:34:43.123Z,11.24
2018-11-13T21:37:16.205Z,11.08
2018-11-13T21:39:49.093Z,11.09
2018-11-13T21:42:22.148Z,11.11
2018-11-13T21:44:55.134Z,11.02
2018-11-13T21:47:28.118Z,10.99
2018-11-13T21:50:01.197Z,11.01
2018-11-13T21:52:34.251Z,10.99
2018-11-13T21:55:08.109Z,10.92
2018-11-13T21:57:42.406Z,10.90
2018-11-13T22:00:26.139Z,10.85
2018-11-13T22:03:17.501Z,10.78
2018-11-13T22:05:50.407Z,10.70
2018-11-13T22:08:23.466Z,10.58
2018-11-13T22:10:54.705Z,10.58
2018-11-13T22:13:27.457Z,10.66
2018-11-13T22:16:00.469Z,10.74
2018-11-13T22:18:32.247Z,10.85
2018-11-13T22:21:05.560Z,10.88
2018-11-13T22:23:38.514Z,10.82
2018-11-13T22:26:09.986Z,10.87
2018-11-13T22:28:43.191Z,10.85
2018-11-13T22:31:16.119Z,10.92
2018-11-13T22:33:49.110Z,10.86
2018-11-13T22:36:22.130Z,10.82
2018-11-13T22:38:55.203Z,10.76
2018-11-13T22:41:28.079Z,10.64
2018-11-13T22:44:01.154Z,10.60
2018-11-13T22:46:34.151Z,10.70
2018-11-13T22:49:07.513Z,10.71
2018-11-13T22:51:38.899Z,10.68
2018-11-13T22:54:11.970Z,10.71
2018-11-13T22:56:45.120Z,10.69
2018-11-13T22:59:18.496Z,10.75
2018-11-13T23:01:51.436Z,10.71
2018-11-13T23:04:22.890Z,10.77
2018-11-13T23:06:55.624Z,10.78
2018-11-13T23:09:28.665Z,10.87
2018-11-13T23:12:01.528Z,10.81
2018-11-13T23:14:32.891Z,10.81
2018-11-13T23:17:05.924Z,10.77
2018-11-13T23:19:38.972Z,10.80
2018-11-13T23:22:12.120Z,10.79
2018-11-13T23:24:45.120Z,10.85
2018-11-13T23:27:18.239Z,10.92
2018-11-13T23:29:51.410Z,10.92
2018-11-13T23:32:24.400Z,10.93
2018-11-13T23:34:55.923Z,10.94
2018-11-13T23:37:28.615Z,10.88
2018-11-13T23:39:59.924Z,10.94
2018-11-13T23:42:32.670Z,10.97
2018-11-13T23:45:05.607Z,10.99
2018-11-13T23:47:38.610Z,10.92
2018-11-13T23:50:12.530Z,10.89
2018-11-13T23:52:44.243Z,10.89
2018-11-13T23:55:17.467Z,10.90
2018-11-13T23:57:49.332Z,10.91
